Home > Products > Valid Products > TAF

000
FTUS44 KSJT 251700
TAFJCT
TAF
KJCT 251720Z 2518/2618 20007KT P6SM SKC
     FM260200 00000KT P6SM SKC=



000
FTUS44 KSJT 251700
TAFSJT
TAF
KSJT 251720Z 2518/2618 20009KT P6SM SKC=



000
FTUS44 KSJT 251700
TAFABI
TAF
KABI 251720Z 2518/2618 22009KT P6SM SKC=



000
FTUS44 KSJT 251700
TAFJCT
TAF
KJCT 251720Z 2518/2618 20007KT P6SM SKC
     FM260200 00000KT P6SM SKC=



000
FTUS44 KSJT 251700
TAFABI
TAF
KABI 251720Z 2518/2618 22009KT P6SM SKC=



000
FTUS44 KSJT 251700
TAFSJT
TAF
KSJT 251720Z 2518/2618 20009KT P6SM SKC=



000
FTUS44 KSJT 251100
TAFJCT
TAF
KJCT 251136Z 2512/2612 VRB02KT P6SM SKC
     FM251600 20007KT P6SM SKC
     FM260200 00000KT P6SM SKC=



000
FTUS44 KSJT 251100
TAFABI
TAF
KABI 251136Z 2512/2612 20009KT P6SM SKC=



000
FTUS44 KSJT 251100
TAFSJT
TAF
KSJT 251136Z 2512/2612 20009KT P6SM SKC=



000
FTUS44 KSJT 251100
TAFJCT
TAF
KJCT 251136Z 2512/2612 VRB02KT P6SM SKC
     FM251600 20007KT P6SM SKC
     FM260200 00000KT P6SM SKC=



000
FTUS44 KSJT 251100
TAFABI
TAF
KABI 251136Z 2512/2612 20009KT P6SM SKC=



000
FTUS44 KSJT 251100
TAFSJT
TAF
KSJT 251136Z 2512/2612 20009KT P6SM SKC=



000
FTUS44 KSJT 250900 AAA
TAFSJT
TAF AMD
KSJT 250909Z 2509/2606 20004KT P6SM SKC
      TEMPO 2511/2513 4SM BR SKC
     FM251500 21008KT P6SM SKC=



000
FTUS44 KSJT 250500 RRA
TAFSJT
TAF
KSJT 250544Z 2506/2606 19006KT P6SM SKC
     FM250900 19006KT 1SM BR SKC
     FM251400 21008KT P6SM SKC=



000
FTUS44 KSJT 250500 RRA
TAFJCT
TAF
KJCT 250544Z 2506/2606 VRB04KT P6SM SKC
     FM250800 VRB03KT 4SM BR SKC
     FM251400 20006KT P6SM SKC=



000
FTUS44 KSJT 250500 RRA
TAFABI
TAF
KABI 250544Z 2506/2606 16008KT P6SM SKC=



000
FTUS44 KSJT 242300
TAFSJT
TAF
KSJT 242320Z 2500/2524 19006KT P6SM SKC
     FM250800 19006KT 1SM BR SKC
     FM251400 21008KT P6SM SKC=



000
FTUS44 KSJT 242300
TAFABI
TAF
KABI 242320Z 2500/2524 18008KT P6SM SKC=



000
FTUS44 KSJT 242300
TAFJCT
TAF
KJCT 242320Z 2500/2524 VRB04KT P6SM SKC
     FM250800 VRB03KT 4SM BR SKC
     FM251400 20006KT P6SM SKC=



000
FTUS44 KSJT 241700
TAFABI
TAF
KABI 241727Z 2418/2518 21009KT P6SM SKC
     FM250000 18007KT P6SM SKC=



000
FTUS44 KSJT 241700
TAFSJT
TAF
KSJT 241727Z 2418/2518 22011KT P6SM SKC
     FM250000 18003KT P6SM SKC
      TEMPO 2511/2515 4SM BR=



000
FTUS44 KSJT 241700
TAFJCT
TAF
KJCT 241727Z 2418/2518 20008KT P6SM SKC
     FM250000 VRB03KT P6SM SKC
      TEMPO 2511/2515 3SM BR=



000
FTUS44 KSJT 241100
TAFABI
TAF
KABI 241131Z 2412/2512 21009KT P6SM SKC
     FM250000 18007KT P6SM SKC=



000
FTUS44 KSJT 241100
TAFSJT
TAF
KSJT 241131Z 2412/2512 21005KT 4SM BR SKC
      TEMPO 2412/2413 2SM BR
     FM241500 20007KT P6SM SKC=



000
FTUS44 KSJT 241100
TAFJCT
TAF
KJCT 241131Z 2412/2512 VRB03KT 5SM BR SKC
     FM241500 20006KT P6SM SKC
     FM250000 VRB03KT P6SM SKC=



000
FTUS44 KSJT 241000 AAA
TAFSJT
TAF AMD
KSJT 241004Z 2410/2506 20004KT 4SM BR SKC
      TEMPO 2410/2413 1SM BR
     FM241500 20005KT P6SM SKC
     FM241800 21008KT P6SM SKC=



000
FTUS44 KSJT 241000 AAA
TAFSJT
TAF AMD
KSJT 241004Z 2410/2506 20004KT 4SM BR SKC
      TEMPO 2410/2413 1SM BR
     FM241500 20005KT P6SM SKC
     FM241800 21008KT P6SM SKC=



000
FTUS44 KSJT 240500
TAFJCT
TAF
KJCT 240538Z 2406/2506 VRB06KT P6SM SKC
     FM240900 VRB03KT 5SM BR SKC
     FM241400 20006KT P6SM SKC
     FM241800 20007KT P6SM SKC=



000
FTUS44 KSJT 240500
TAFSJT
TAF
KSJT 240538Z 2406/2506 VRB06KT P6SM SKC
     FM241800 21008KT P6SM SKC=



000
FTUS44 KSJT 240500
TAFABI
TAF
KABI 240538Z 2406/2506 VRB06KT P6SM SKC
     FM241800 21009KT P6SM SKC=



000
FTUS44 KSJT 232300
TAFABI
TAF
KABI 232320Z 2400/2424 VRB06KT P6SM SKC=



000
FTUS44 KSJT 232300
TAFJCT
TAF
KJCT 232320Z 2400/2424 VRB06KT P6SM SKC
     FM240900 VRB03KT 5SM BR SKC
     FM241400 20006KT P6SM SKC=



000
FTUS44 KSJT 232300
TAFSJT
TAF
KSJT 232320Z 2400/2424 VRB06KT P6SM SKC=



000
FTUS44 KSJT 232000 AAC
TAFSJT
TAF AMD
KSJT 232044Z 2321/2418 19008KT P6SM SCT030
     FM240000 17005KT P6SM SKC
     FM241400 21007KT P6SM SKC=



000
FTUS44 KSJT 232000 AAB
TAFSJT
TAF AMD
KSJT 232023Z 2320/2418 19010KT P6SM BKN025
      TEMPO 2320/2321 SCT025
     FM232100 19008KT P6SM FEW030
     FM232300 17005KT P6SM SKC
     FM241400 21007KT P6SM SKC=



000
FTUS44 KSJT 231800 AAA
TAFSJT
TAF AMD
KSJT 231843Z 2319/2418 19010KT P6SM BKN025
      TEMPO 2319/2320 SCT025
     FM232000 19008KT P6SM FEW030
     FM232300 17005KT P6SM SKC
     FM241400 21007KT P6SM SKC=



000
FTUS44 KSJT 231800 AAA
TAFSJT
TAF AMD
KSJT 231843Z 2319/2418 19010KT P6SM BKN025
      TEMPO 2319/2320 SCT025
     FM232000 19008KT P6SM FEW030
     FM232300 17005KT P6SM SKC
     FM241400 21007KT P6SM SKC=



000
FTUS44 KSJT 231700
TAFABI
TAF
KABI 231720Z 2318/2418 21006KT P6SM FEW050
     FM240000 16006KT P6SM SKC
     FM241400 21008KT P6SM SKC=



000
FTUS44 KSJT 231700
TAFJCT
TAF
KJCT 231720Z 2318/2418 18006KT P6SM SCT060
     FM240200 VRB03KT P6SM SKC
     FM241100 00000KT 5SM BR SKC
     FM241400 20005KT P6SM SKC=



000
FTUS44 KSJT 231700
TAFSJT
TAF
KSJT 231720Z 2318/2418 19009KT P6SM BKN025
      TEMPO 2318/2319 SCT030
     FM231900 19008KT P6SM FEW030
     FM232300 17005KT P6SM SKC
     FM241400 21007KT P6SM SKC=



000
FTUS44 KSJT 231600 AAB
TAFSJT
TAF AMD
KSJT 231641Z 2317/2412 21010KT P6SM BKN024
     FM231700 20009KT P6SM SCT030
      TEMPO 2317/2318 BKN025
     FM232300 16007KT P6SM SKC=



000
FTUS44 KSJT 231600 AAB
TAFSJT
TAF AMD
KSJT 231641Z 2317/2412 21010KT P6SM BKN024
     FM231700 20009KT P6SM SCT030
      TEMPO 2317/2318 BKN025
     FM232300 16007KT P6SM SKC=



000
FTUS44 KSJT 231400 AAA
TAFJCT
TAF AMD
KJCT 231417Z 2314/2412 VRB03KT 5SM BR FEW030
     FM231500 VRB04KT P6SM FEW050=



000
FTUS44 KSJT 231300 AAA
TAFSJT
TAF AMD
KSJT 231316Z 2313/2412 18007KT P6SM SCT050
      TEMPO 2313/2314 6SM BR
     FM232300 16005KT P6SM SKC=



000
FTUS44 KSJT 231100
TAFABI
TAF
KABI 231120Z 2312/2412 17005KT P6SM OVC045
     FM231400 18006KT P6SM SKC=



000
FTUS44 KSJT 231100
TAFJCT
TAF
KJCT 231120Z 2312/2412 VRB03KT 5SM BR SKC
     FM231400 VRB04KT P6SM SKC=



000
FTUS44 KSJT 231100
TAFSJT
TAF
KSJT 231120Z 2312/2412 20005KT P6SM SKC=



000
FTUS44 KSJT 230500
TAFSJT
TAF
KSJT 230520Z 2306/2406 VRB06KT P6SM SCT120
     FM231800 17009KT P6SM FEW250=



000
FTUS44 KSJT 230500
TAFJCT
TAF
KJCT 230520Z 2306/2406 VRB06KT P6SM SCT120
     FM231800 16007KT P6SM FEW250=



000
FTUS44 KSJT 230500
TAFABI
TAF
KABI 230520Z 2306/2406 VRB06KT P6SM FEW120
     FM231800 18010KT P6SM FEW250=



000
FTUS44 KSJT 222300
TAFJCT
TAF
KJCT 222320Z 2300/2324 15005KT P6SM VCSH BKN080
     FM230300 18004KT P6SM FEW070=



000
FTUS44 KSJT 222300
TAFABI
TAF
KABI 222320Z 2300/2324 14006KT P6SM BKN060
     FM231000 19007KT P6SM FEW060=



000
FTUS44 KSJT 222300
TAFSJT
TAF
KSJT 222320Z 2300/2324 14004KT P6SM BKN060
     FM231000 19006KT P6SM FEW060=



    US Dept of Commerce
    National Oceanic and Atmospheric Administration
    National Weather Service
    1325 East West Highway
    Silver Spring, MD 20910
    Page Author: NWS Internet Services Team
Disclaimer
Information Quality
Credits
Glossary
Privacy Policy
Freedom of Information Act (FOIA)
About Us
Career Opportunities